الصفحة الرئيسية
METAR-TAF:

METAR-TAF

مطار :

Gulkana, ألاسكا, الولايات المتحدة

دائرة عرض: 62-09N, خط طول: 145-27W, ارتفاع: 481 متر

مراقبة الطقس الحالي

تاريخ ووقت الإصدار 44 دقيقة قبل الساعة 16:53UTC
رياح هادئة
درجة الحرارة -24°درجة مئوية
الرطوبة 69%
ضغط 1019 hPa
الرؤية: 16.1 كم
سماء صافية

METAR: PAGK 041653Z AUTO 00000KT 10SM CLR M24/M28 A3008 RMK AO2 SLP256 T12441278 TSNO

زمن: 08:37 (17:37 UTC)

توقعات

تاريخ ووقت الإصدار 6ساعات و 10 دقيقة قبل الساعة 11:27UTC
التوقعات صالحة من04 الساعة 12 UTC إلى 05 الساعة 12 UTC
ريح 2 عقدةمن اتجاهات متغيرة
الرؤية: 10 كم
غيوم مفككة على ارتفاع 10000 قدم
من 05 الساعة 0600 UTC
ريح 2 عقدةمن اتجاهات متغيرة
الرؤية: 6.4 كم
ملبد بالغيوم على ارتفاع 2500 قدم
ثلوج خفيفة, غشاء,

TAF: PAGK 041127Z 0412/0512 VRB02KT P6SM BKN100 FM050600 VRB02KT 4SM -SN BR OVC025

أرصاد الطقس والتوقعات من أكثر من 4000 مطار (تقارير الطقس للمطار METAR والتنبؤ بالطقس بالمطارTAF).

المحطات المتاحة هي النقط الصفراء والحمراء على الخريطة.

حرك المؤشر فوق النقطة لمعرفة اسم المحطة.

ثم انقر لمعرفة أرصاد وتوقعات الطقس.

لتغيير الخارطة: اضغط على الأزرار الخضراء مع رمز الصليب الأسود للتكبير. على الزر الأخضر مع شرطة للتصغير، أو على الأسهم الخضراء للخرائط المجاورة.


METAR-TAF: